createdAt,value
2023-05-19T00:00:55.282Z,6.10
2023-05-19T00:03:54.319Z,6.65
2023-05-19T00:06:39.723Z,5.25
2023-05-19T00:09:25.469Z,8.10
2023-05-19T00:12:11.832Z,5.35
2023-05-19T00:14:57.200Z,4.35
2023-05-19T00:17:42.614Z,4.18
2023-05-19T00:20:28.038Z,6.22
2023-05-19T00:23:13.609Z,5.10
2023-05-19T00:25:59.111Z,5.75
2023-05-19T00:28:44.789Z,4.75
2023-05-19T00:31:31.775Z,7.80
2023-05-19T00:34:17.402Z,7.63
2023-05-19T00:37:03.079Z,5.30
2023-05-19T00:39:48.385Z,6.72
2023-05-19T00:42:34.069Z,5.00
2023-05-19T00:45:19.718Z,6.15
2023-05-19T00:48:05.328Z,4.50
2023-05-19T00:50:53.064Z,4.85
2023-05-19T00:53:38.683Z,4.93
2023-05-19T00:56:24.228Z,7.43
2023-05-19T00:59:09.842Z,5.20
2023-05-19T01:01:55.131Z,6.60
2023-05-19T01:04:41.917Z,5.10
2023-05-19T01:07:28.600Z,9.50
2023-05-19T01:10:14.024Z,5.63
2023-05-19T01:12:59.971Z,5.53
2023-05-19T01:16:02.259Z,7.47
2023-05-19T01:19:19.720Z,4.22
2023-05-19T01:22:13.285Z,5.47
2023-05-19T01:25:36.879Z,5.13
2023-05-19T01:28:25.334Z,7.05
2023-05-19T01:31:12.931Z,11.23
2023-05-19T01:33:59.377Z,6.47
2023-05-19T01:36:48.654Z,7.07
2023-05-19T01:39:35.548Z,6.95
2023-05-19T01:42:22.350Z,4.75
2023-05-19T01:45:11.630Z,5.53
2023-05-19T01:47:59.557Z,4.95
2023-05-19T01:50:46.162Z,4.53
2023-05-19T01:53:31.657Z,6.80
2023-05-19T01:56:23.677Z,5.40
2023-05-19T01:59:50.968Z,8.88
2023-05-19T02:03:05.167Z,5.78
2023-05-19T02:06:04.075Z,5.93
2023-05-19T02:09:01.216Z,4.65
2023-05-19T02:11:58.017Z,6.50
2023-05-19T02:14:52.975Z,6.20
2023-05-19T02:17:43.111Z,4.25
2023-05-19T02:20:28.747Z,4.18
2023-05-19T02:23:14.531Z,7.63
2023-05-19T02:25:59.854Z,7.75
2023-05-19T02:28:45.061Z,5.10
2023-05-19T02:31:30.744Z,4.45
2023-05-19T02:34:16.567Z,5.70
2023-05-19T02:37:02.207Z,5.78
2023-05-19T02:39:47.547Z,5.93
2023-05-19T02:42:33.295Z,4.38
2023-05-19T02:45:18.980Z,6.60
2023-05-19T02:48:04.768Z,4.95
2023-05-19T02:50:50.486Z,5.72
2023-05-19T02:53:36.603Z,8.27
2023-05-19T02:56:22.191Z,5.32
2023-05-19T02:59:07.774Z,7.03
2023-05-19T03:01:56.157Z,5.95
2023-05-19T03:04:44.100Z,5.95
2023-05-19T03:07:30.089Z,6.38
2023-05-19T03:10:15.550Z,6.25
2023-05-19T03:13:00.790Z,9.70
2023-05-19T03:15:46.338Z,6.82
2023-05-19T03:18:31.810Z,4.95
2023-05-19T03:21:17.115Z,7.13
2023-05-19T03:24:02.640Z,5.68
2023-05-19T03:26:48.067Z,6.00
2023-05-19T03:29:33.795Z,6.32
2023-05-19T03:32:19.321Z,7.18
2023-05-19T03:35:05.787Z,5.63
2023-05-19T03:37:50.981Z,5.90
2023-05-19T03:40:36.303Z,6.53
2023-05-19T03:43:21.508Z,6.28
2023-05-19T03:46:07.155Z,7.43
2023-05-19T03:48:52.992Z,7.13
2023-05-19T03:51:38.681Z,6.78
2023-05-19T03:54:23.891Z,7.88
2023-05-19T03:57:10.236Z,6.00
2023-05-19T03:59:55.865Z,5.82
2023-05-19T04:02:44.676Z,6.20
2023-05-19T04:05:30.142Z,6.03
2023-05-19T04:08:15.838Z,6.43
2023-05-19T04:11:01.509Z,6.93
2023-05-19T04:13:47.063Z,9.02
2023-05-19T04:16:33.100Z,6.15
2023-05-19T04:19:18.729Z,8.40
2023-05-19T04:22:04.431Z,8.85
2023-05-19T04:24:51.815Z,9.38
2023-05-19T04:27:38.894Z,6.88
2023-05-19T04:30:25.169Z,5.03
2023-05-19T04:33:11.730Z,14.73
2023-05-19T04:35:56.998Z,7.13
2023-05-19T04:38:42.928Z,7.72
2023-05-19T04:41:28.428Z,7.68
2023-05-19T04:44:13.801Z,5.95
2023-05-19T04:47:00.226Z,7.60
2023-05-19T04:49:46.090Z,5.40
2023-05-19T04:52:31.627Z,7.15
2023-05-19T04:55:17.262Z,4.55
2023-05-19T04:58:02.700Z,4.68
2023-05-19T05:00:48.385Z,5.63
2023-05-19T05:03:34.635Z,4.82
2023-05-19T05:06:20.260Z,5.45
2023-05-19T05:09:06.019Z,4.80
2023-05-19T05:11:51.773Z,7.43
2023-05-19T05:14:37.349Z,6.50
2023-05-19T05:17:22.911Z,7.68
2023-05-19T05:20:08.595Z,6.20
2023-05-19T05:22:54.516Z,7.03
2023-05-19T05:25:43.328Z,5.30
2023-05-19T05:28:28.864Z,6.35
2023-05-19T05:31:14.659Z,6.20
2023-05-19T05:34:00.222Z,6.82
2023-05-19T05:36:45.603Z,5.93
2023-05-19T05:39:31.902Z,8.25
2023-05-19T05:42:17.008Z,5.10
2023-05-19T05:45:02.463Z,6.68
2023-05-19T05:47:48.274Z,5.18
2023-05-19T05:50:34.466Z,5.40
2023-05-19T05:53:21.454Z,7.88
2023-05-19T05:56:08.050Z,5.57
2023-05-19T05:58:53.823Z,6.25
2023-05-19T06:01:39.003Z,5.18
2023-05-19T06:04:25.776Z,4.32
2023-05-19T06:07:11.125Z,5.00
2023-05-19T06:09:56.840Z,6.32
2023-05-19T06:12:43.284Z,6.00
2023-05-19T06:15:28.981Z,6.22
2023-05-19T06:18:14.690Z,6.72
2023-05-19T06:21:00.236Z,4.97
2023-05-19T06:23:45.536Z,5.45
2023-05-19T06:26:30.911Z,6.60
2023-05-19T06:29:17.221Z,5.97
2023-05-19T06:32:02.660Z,7.03
2023-05-19T06:34:54.085Z,7.28
2023-05-19T06:37:39.516Z,8.48
2023-05-19T06:40:24.988Z,8.27
2023-05-19T06:43:10.545Z,7.50
2023-05-19T06:45:55.977Z,8.85
2023-05-19T06:48:41.648Z,6.45
2023-05-19T06:51:27.354Z,4.75
2023-05-19T06:54:16.060Z,5.22
2023-05-19T06:57:01.825Z,5.82
2023-05-19T06:59:47.239Z,6.63
2023-05-19T07:02:32.805Z,4.97
2023-05-19T07:05:18.573Z,4.70
2023-05-19T07:08:05.101Z,5.30
2023-05-19T07:10:50.563Z,5.00
2023-05-19T07:13:36.126Z,4.93
2023-05-19T07:16:21.546Z,4.90
2023-05-19T07:19:07.073Z,5.70
2023-05-19T07:21:52.561Z,6.68
2023-05-19T07:24:37.995Z,4.97
2023-05-19T07:27:23.401Z,5.10
2023-05-19T07:30:09.334Z,5.50
2023-05-19T07:32:55.143Z,5.20
2023-05-19T07:35:40.515Z,5.43
2023-05-19T07:38:25.964Z,6.30
2023-05-19T07:41:11.757Z,6.38
2023-05-19T07:43:57.147Z,4.68
2023-05-19T07:46:42.771Z,6.15
2023-05-19T07:49:28.202Z,4.50
2023-05-19T07:52:13.472Z,6.78
2023-05-19T07:54:59.408Z,5.05
2023-05-19T07:57:45.154Z,5.47
2023-05-19T08:00:30.457Z,3.83
2023-05-19T08:03:18.394Z,5.82
2023-05-19T08:06:03.863Z,4.40
2023-05-19T08:08:49.088Z,5.47
2023-05-19T08:11:34.632Z,7.43
2023-05-19T08:14:22.413Z,5.35
2023-05-19T08:17:08.166Z,4.35
2023-05-19T08:19:53.664Z,8.35
2023-05-19T08:22:39.211Z,4.53
2023-05-19T08:25:24.858Z,4.47
2023-05-19T08:28:10.653Z,10.30
2023-05-19T08:30:56.358Z,4.47
2023-05-19T08:33:41.788Z,4.30
2023-05-19T08:36:27.702Z,6.43
2023-05-19T08:39:14.093Z,7.38
2023-05-19T08:41:59.205Z,5.68
2023-05-19T08:44:44.797Z,6.10
2023-05-19T08:47:30.617Z,5.50
2023-05-19T08:50:23.202Z,6.93
2023-05-19T08:53:32.514Z,6.32
2023-05-19T08:56:22.250Z,13.70
2023-05-19T08:59:08.304Z,7.80
2023-05-19T09:01:55.136Z,5.05
2023-05-19T09:04:41.584Z,7.60
2023-05-19T09:07:27.529Z,5.82
2023-05-19T09:10:14.843Z,5.70
2023-05-19T09:13:00.281Z,5.38
2023-05-19T09:15:46.045Z,7.55
2023-05-19T09:18:31.872Z,7.32
2023-05-19T09:21:17.763Z,6.38
2023-05-19T09:24:08.430Z,6.82
2023-05-19T09:26:58.530Z,5.72
2023-05-19T09:29:45.624Z,4.28
2023-05-19T09:32:31.635Z,6.55
2023-05-19T09:35:17.390Z,7.07
2023-05-19T09:38:02.703Z,4.85
2023-05-19T09:40:52.332Z,7.05
2023-05-19T09:43:37.627Z,7.60
2023-05-19T09:46:30.189Z,6.95
2023-05-19T09:49:26.219Z,6.00
2023-05-19T09:52:16.304Z,7.22
2023-05-19T09:55:04.304Z,8.98
2023-05-19T09:57:50.314Z,5.95
2023-05-19T10:00:36.024Z,5.40
2023-05-19T10:03:24.116Z,6.00
2023-05-19T10:06:09.926Z,6.55
2023-05-19T10:08:56.103Z,6.65
2023-05-19T10:11:41.901Z,5.85
2023-05-19T10:14:29.193Z,6.25
2023-05-19T10:17:15.561Z,7.15
2023-05-19T10:20:01.207Z,5.50
2023-05-19T10:22:46.771Z,6.13
2023-05-19T10:25:34.805Z,6.85
2023-05-19T10:28:25.879Z,4.72
2023-05-19T10:31:17.081Z,5.15
2023-05-19T10:34:14.175Z,6.95
2023-05-19T10:37:10.788Z,5.88
2023-05-19T10:39:57.701Z,5.50
2023-05-19T10:43:20.865Z,5.40
2023-05-19T10:46:06.489Z,5.38
2023-05-19T10:48:52.248Z,5.70
2023-05-19T10:51:37.584Z,7.05
2023-05-19T10:54:46.189Z,6.90
2023-05-19T10:57:34.772Z,6.13
2023-05-19T11:00:31.300Z,6.07
2023-05-19T11:03:18.815Z,5.35
2023-05-19T11:06:28.094Z,5.70
2023-05-19T11:09:15.884Z,5.90
2023-05-19T11:12:03.897Z,7.28
2023-05-19T11:14:53.682Z,8.60
2023-05-19T11:17:41.856Z,6.25
2023-05-19T11:20:28.919Z,8.82
2023-05-19T11:23:20.224Z,8.52
2023-05-19T11:26:08.438Z,6.78
2023-05-19T11:28:54.170Z,6.72
2023-05-19T11:31:40.124Z,7.43
2023-05-19T11:34:26.056Z,8.60
2023-05-19T11:37:12.316Z,9.93
2023-05-19T11:39:58.571Z,10.65
2023-05-19T11:42:45.315Z,6.78
2023-05-19T11:45:33.008Z,6.18
2023-05-19T11:48:21.635Z,6.93
2023-05-19T11:51:07.056Z,5.80
2023-05-19T11:53:54.352Z,5.82
2023-05-19T11:56:43.332Z,6.20
2023-05-19T11:59:36.532Z,6.80
2023-05-19T12:02:27.712Z,6.00
2023-05-19T12:05:24.249Z,8.73
2023-05-19T12:08:10.505Z,5.90
2023-05-19T12:10:58.333Z,6.40
2023-05-19T12:13:44.146Z,6.82
2023-05-19T12:16:35.593Z,5.43
2023-05-19T12:19:24.231Z,4.97
2023-05-19T12:22:10.509Z,8.15
2023-05-19T12:24:56.565Z,5.50
2023-05-19T12:27:43.859Z,8.20
2023-05-19T12:30:30.436Z,5.40
2023-05-19T12:33:16.635Z,7.53
2023-05-19T12:36:02.372Z,7.32
2023-05-19T12:38:48.505Z,5.32
2023-05-19T12:41:34.630Z,7.22
2023-05-19T12:44:20.190Z,4.22
2023-05-19T12:47:07.244Z,5.72
2023-05-19T12:50:05.153Z,5.43
2023-05-19T12:52:53.594Z,5.78
2023-05-19T12:55:43.857Z,4.22
2023-05-19T12:58:34.052Z,5.55
2023-05-19T13:01:19.667Z,8.38
2023-05-19T13:04:06.377Z,6.47
2023-05-19T13:06:53.419Z,7.53
2023-05-19T13:09:39.987Z,5.43
2023-05-19T13:12:26.210Z,5.72
2023-05-19T13:15:12.085Z,7.28
2023-05-19T13:17:57.614Z,6.43
2023-05-19T13:20:44.582Z,7.20
2023-05-19T13:23:30.099Z,6.82
2023-05-19T13:26:15.516Z,8.40
2023-05-19T13:29:02.293Z,5.35
2023-05-19T13:31:47.578Z,6.15
2023-05-19T13:34:33.173Z,6.95
2023-05-19T13:37:18.704Z,5.72
2023-05-19T13:40:05.188Z,4.53
2023-05-19T13:42:50.561Z,7.22
2023-05-19T13:45:36.139Z,5.88
2023-05-19T13:48:21.823Z,5.38
2023-05-19T13:51:07.236Z,4.90
2023-05-19T13:53:52.831Z,5.68
2023-05-19T13:56:38.753Z,5.78
2023-05-19T13:59:26.227Z,6.93
2023-05-19T14:02:12.846Z,7.97
2023-05-19T14:04:58.135Z,5.78
2023-05-19T14:07:44.591Z,7.00
2023-05-19T14:10:30.308Z,5.97
2023-05-19T14:13:31.637Z,7.28
2023-05-19T14:16:22.109Z,5.82
2023-05-19T14:19:08.235Z,9.15
2023-05-19T14:21:53.665Z,5.93
2023-05-19T14:24:39.349Z,8.30
2023-05-19T14:27:24.635Z,5.80
2023-05-19T14:30:10.528Z,6.40
2023-05-19T14:32:56.348Z,5.75
2023-05-19T14:35:42.309Z,6.20
2023-05-19T14:38:29.388Z,5.97
2023-05-19T14:41:14.978Z,5.25
2023-05-19T14:44:00.202Z,6.15
2023-05-19T14:46:45.539Z,6.28
2023-05-19T14:49:30.968Z,7.65
2023-05-19T14:52:17.864Z,5.82
2023-05-19T14:55:03.232Z,6.20
2023-05-19T14:57:48.539Z,7.40
2023-05-19T15:00:34.122Z,5.55
2023-05-19T15:03:19.787Z,6.38
2023-05-19T15:06:11.668Z,7.32
2023-05-19T15:08:57.188Z,6.32
2023-05-19T15:11:42.729Z,5.45
2023-05-19T15:14:30.575Z,7.20
2023-05-19T15:17:16.715Z,6.45
2023-05-19T15:20:02.701Z,8.60
2023-05-19T15:22:48.636Z,6.20
2023-05-19T15:25:33.945Z,6.70
2023-05-19T15:28:19.999Z,5.57
2023-05-19T15:31:05.694Z,6.20
2023-05-19T15:33:51.329Z,7.07
2023-05-19T15:36:36.733Z,7.68
2023-05-19T15:39:22.182Z,7.82
2023-05-19T15:42:07.782Z,7.63
2023-05-19T15:44:53.313Z,9.15
2023-05-19T15:47:38.677Z,5.57
2023-05-19T15:50:26.319Z,6.43
2023-05-19T15:53:11.604Z,5.60
2023-05-19T15:55:57.543Z,6.05
2023-05-19T15:58:43.517Z,5.63
2023-05-19T16:01:29.410Z,7.00
2023-05-19T16:04:14.785Z,5.60
2023-05-19T16:07:00.202Z,6.15
2023-05-19T16:09:45.836Z,5.05
2023-05-19T16:12:31.646Z,8.65
2023-05-19T16:15:17.034Z,7.68
2023-05-19T16:18:02.689Z,7.07
2023-05-19T16:20:48.218Z,7.15
2023-05-19T16:23:33.440Z,5.88
2023-05-19T16:26:18.932Z,6.15
2023-05-19T16:29:04.218Z,6.13
2023-05-19T16:31:49.708Z,6.38
2023-05-19T16:34:35.702Z,7.68
2023-05-19T16:37:21.241Z,5.75
2023-05-19T16:40:07.524Z,6.15
2023-05-19T16:42:53.579Z,7.10
2023-05-19T16:45:38.874Z,7.50
2023-05-19T16:48:24.293Z,6.70
2023-05-19T16:51:09.879Z,6.07
2023-05-19T16:53:55.301Z,8.73
2023-05-19T16:56:41.016Z,6.55
2023-05-19T16:59:26.502Z,6.30
2023-05-19T17:02:11.757Z,6.68
2023-05-19T17:04:57.323Z,8.52
2023-05-19T17:07:42.822Z,6.63
2023-05-19T17:10:28.321Z,8.77
2023-05-19T17:13:13.770Z,8.23
2023-05-19T17:15:59.664Z,8.05
2023-05-19T17:18:45.122Z,5.63
2023-05-19T17:21:31.479Z,7.22
2023-05-19T17:24:16.815Z,7.00
2023-05-19T17:27:02.395Z,7.85
2023-05-19T17:29:48.175Z,9.02
2023-05-19T17:32:38.633Z,7.13
2023-05-19T17:35:26.328Z,10.65
2023-05-19T17:38:13.116Z,6.45
2023-05-19T17:41:02.453Z,6.95
2023-05-19T17:43:48.108Z,7.40
2023-05-19T17:46:34.805Z,8.02
2023-05-19T17:49:23.009Z,9.77
2023-05-19T17:52:09.301Z,11.00
2023-05-19T17:54:54.862Z,7.82
2023-05-19T17:57:43.662Z,7.88
2023-05-19T18:00:29.556Z,8.75
2023-05-19T18:03:15.525Z,10.00
2023-05-19T18:06:01.646Z,9.50
2023-05-19T18:08:50.382Z,8.20
2023-05-19T18:11:36.149Z,7.90
2023-05-19T18:14:21.489Z,8.43
2023-05-19T18:17:07.163Z,11.27
2023-05-19T18:19:52.683Z,7.75
2023-05-19T18:22:37.959Z,13.38
2023-05-19T18:25:23.957Z,7.70
2023-05-19T18:28:09.565Z,9.40
2023-05-19T18:31:05.697Z,7.10
2023-05-19T18:33:50.951Z,7.90
2023-05-19T18:36:36.695Z,7.50
2023-05-19T18:39:21.984Z,9.20
2023-05-19T18:42:07.359Z,8.52
2023-05-19T18:44:52.819Z,12.07
2023-05-19T18:47:38.093Z,8.90
2023-05-19T18:50:23.496Z,7.13
2023-05-19T18:53:08.856Z,9.40
2023-05-19T18:55:54.457Z,11.30
2023-05-19T18:58:39.941Z,10.80
2023-05-19T19:01:25.498Z,9.52
2023-05-19T19:04:11.223Z,9.70
2023-05-19T19:06:56.696Z,10.10
2023-05-19T19:09:43.821Z,9.45
2023-05-19T19:12:29.212Z,11.90
2023-05-19T19:15:14.605Z,9.30
2023-05-19T19:18:00.291Z,9.38
2023-05-19T19:20:45.795Z,10.18
2023-05-19T19:23:31.872Z,8.02
2023-05-19T19:26:17.405Z,10.60
2023-05-19T19:29:02.731Z,13.55
2023-05-19T19:31:48.655Z,8.13
2023-05-19T19:34:34.565Z,11.40
2023-05-19T19:37:19.900Z,8.93
2023-05-19T19:40:06.226Z,9.68
2023-05-19T19:42:52.050Z,10.23
2023-05-19T19:45:39.540Z,13.88
2023-05-19T19:48:25.057Z,8.13
2023-05-19T19:51:10.461Z,10.10
2023-05-19T19:53:56.186Z,11.02
2023-05-19T19:56:41.422Z,8.75
2023-05-19T19:59:27.039Z,9.00
2023-05-19T20:02:12.351Z,9.05
2023-05-19T20:04:57.779Z,9.95
2023-05-19T20:07:43.317Z,9.05
2023-05-19T20:10:28.688Z,10.85
2023-05-19T20:13:19.003Z,9.60
2023-05-19T20:16:04.754Z,10.98
2023-05-19T20:18:50.649Z,11.48
2023-05-19T20:21:36.479Z,11.30
2023-05-19T20:24:21.945Z,9.32
2023-05-19T20:27:07.743Z,9.63
2023-05-19T20:29:53.013Z,10.45
2023-05-19T20:32:39.692Z,10.35
2023-05-19T20:35:25.474Z,11.93
2023-05-19T20:38:10.942Z,9.90
2023-05-19T20:40:56.505Z,11.27
2023-05-19T20:43:41.958Z,11.18
2023-05-19T20:46:27.812Z,13.10
2023-05-19T20:49:13.299Z,16.52
2023-05-19T20:51:58.946Z,10.70
2023-05-19T20:54:46.418Z,12.68
2023-05-19T20:57:31.970Z,10.60
2023-05-19T21:00:17.522Z,13.38
2023-05-19T21:03:02.789Z,11.05
2023-05-19T21:05:48.156Z,10.10
2023-05-19T21:08:33.708Z,11.13
2023-05-19T21:11:19.141Z,12.43
2023-05-19T21:14:04.769Z,15.75
2023-05-19T21:16:51.385Z,13.70
2023-05-19T21:19:37.525Z,13.38
2023-05-19T21:22:24.298Z,13.02
2023-05-19T21:25:09.732Z,18.05
2023-05-19T21:27:56.083Z,14.00
2023-05-19T21:30:41.752Z,10.43
2023-05-19T21:33:27.459Z,19.55
2023-05-19T21:36:12.881Z,15.82
2023-05-19T21:38:58.539Z,16.60
2023-05-19T21:41:44.004Z,11.18
2023-05-19T21:44:29.787Z,13.27
2023-05-19T21:47:15.320Z,15.60
2023-05-19T21:50:00.641Z,12.70
2023-05-19T21:52:46.001Z,12.68
2023-05-19T21:55:31.343Z,10.82
2023-05-19T21:58:16.900Z,12.00
2023-05-19T22:01:03.460Z,12.90
2023-05-19T22:03:49.012Z,12.40
2023-05-19T22:06:34.909Z,13.13
2023-05-19T22:09:20.516Z,11.98
2023-05-19T22:12:06.577Z,14.35
2023-05-19T22:14:51.846Z,10.57
2023-05-19T22:17:37.311Z,12.85
2023-05-19T22:20:22.929Z,13.20
2023-05-19T22:23:08.563Z,12.57
2023-05-19T22:25:53.930Z,11.73
2023-05-19T22:28:39.727Z,11.73
2023-05-19T22:31:24.890Z,13.40
2023-05-19T22:34:12.706Z,12.93
2023-05-19T22:36:58.485Z,14.23
2023-05-19T22:39:44.129Z,11.60
2023-05-19T22:42:29.492Z,11.82
2023-05-19T22:45:15.019Z,10.15
2023-05-19T22:48:00.704Z,12.60
2023-05-19T22:50:46.454Z,12.02
2023-05-19T22:53:32.052Z,12.43
2023-05-19T22:56:17.739Z,11.05
2023-05-19T22:59:03.340Z,13.40
2023-05-19T23:01:48.867Z,13.43
2023-05-19T23:04:35.212Z,10.23
2023-05-19T23:07:20.476Z,11.93
2023-05-19T23:10:07.562Z,10.30
2023-05-19T23:12:53.035Z,11.70
2023-05-19T23:15:38.424Z,10.05
2023-05-19T23:18:24.017Z,9.90
2023-05-19T23:21:09.246Z,12.30
2023-05-19T23:23:55.792Z,11.50
2023-05-19T23:26:44.013Z,14.80
2023-05-19T23:29:29.343Z,13.60
2023-05-19T23:32:15.416Z,10.85
2023-05-19T23:35:11.856Z,12.70
2023-05-19T23:37:57.528Z,11.55
2023-05-19T23:40:43.518Z,13.98
2023-05-19T23:43:28.805Z,11.45
2023-05-19T23:46:14.331Z,12.90
2023-05-19T23:48:59.650Z,14.88
2023-05-19T23:51:45.314Z,15.80
2023-05-19T23:54:30.606Z,12.50
2023-05-19T23:57:16.144Z,16.02
